createdAt,value
2022-08-28T00:02:04.033Z,91.50
2022-08-28T00:04:31.687Z,91.60
2022-08-28T00:06:59.414Z,91.60
2022-08-28T00:09:26.800Z,91.60
2022-08-28T00:11:54.812Z,91.60
2022-08-28T00:14:23.091Z,91.60
2022-08-28T00:16:51.041Z,91.70
2022-08-28T00:19:19.562Z,91.60
2022-08-28T00:21:47.688Z,91.60
2022-08-28T00:24:15.334Z,91.70
2022-08-28T00:27:01.558Z,91.70
2022-08-28T00:29:30.016Z,91.80
2022-08-28T00:31:57.765Z,91.80
2022-08-28T00:34:32.960Z,91.80
2022-08-28T00:37:01.394Z,91.80
2022-08-28T00:39:28.939Z,91.90
2022-08-28T00:41:57.926Z,92.00
2022-08-28T00:44:27.854Z,92.00
2022-08-28T00:46:57.437Z,92.00
2022-08-28T00:49:28.454Z,92.10
2022-08-28T00:52:12.447Z,92.30
2022-08-28T00:54:59.753Z,92.20
2022-08-28T00:57:56.858Z,92.40
2022-08-28T01:00:34.471Z,92.50
2022-08-28T01:03:02.645Z,92.60
2022-08-28T01:05:30.339Z,92.70
2022-08-28T01:07:59.180Z,92.80
2022-08-28T01:10:28.869Z,92.90
2022-08-28T01:12:57.190Z,93.00
2022-08-28T01:15:37.193Z,93.10
2022-08-28T01:18:09.314Z,93.30
2022-08-28T01:20:42.930Z,93.50
2022-08-28T01:23:25.346Z,93.50
2022-08-28T01:25:52.853Z,93.60
2022-08-28T01:28:20.387Z,93.80
2022-08-28T01:30:49.615Z,93.90
2022-08-28T01:33:17.392Z,94.00
2022-08-28T01:35:50.355Z,94.10
2022-08-28T01:38:20.134Z,94.20
2022-08-28T01:40:53.518Z,94.30
2022-08-28T01:43:23.989Z,94.40
2022-08-28T01:45:56.281Z,94.60
2022-08-28T01:48:26.216Z,94.60
2022-08-28T01:50:53.772Z,94.90
2022-08-28T01:53:25.037Z,94.90
2022-08-28T01:55:54.056Z,95.00
2022-08-28T01:58:21.941Z,95.10
2022-08-28T02:00:49.460Z,95.20
2022-08-28T02:03:17.207Z,95.30
2022-08-28T02:05:44.656Z,95.50
2022-08-28T02:08:12.221Z,95.50
2022-08-28T02:10:41.678Z,95.60
2022-08-28T02:13:09.096Z,95.60
2022-08-28T02:15:37.761Z,95.70
2022-08-28T02:18:06.208Z,95.60
2022-08-28T02:20:34.476Z,95.70
2022-08-28T02:23:02.453Z,95.70
2022-08-28T02:25:29.971Z,95.80
2022-08-28T02:27:57.919Z,95.90
2022-08-28T02:30:25.414Z,96.00
2022-08-28T02:32:53.322Z,96.00
2022-08-28T02:35:23.697Z,96.10
2022-08-28T02:37:52.179Z,96.20
2022-08-28T02:40:24.077Z,96.30
2022-08-28T02:42:52.476Z,96.40
2022-08-28T02:45:21.063Z,96.50
2022-08-28T02:47:51.736Z,96.60
2022-08-28T02:50:20.100Z,96.60
2022-08-28T02:52:47.891Z,96.80
2022-08-28T02:55:18.136Z,96.80
2022-08-28T02:57:47.617Z,96.90
2022-08-28T03:00:20.214Z,97.00
2022-08-28T03:02:48.165Z,97.10
2022-08-28T03:05:17.856Z,97.20
2022-08-28T03:07:45.614Z,97.20
2022-08-28T03:10:13.366Z,97.30
2022-08-28T03:12:40.733Z,97.40
2022-08-28T03:15:09.181Z,97.50
2022-08-28T03:17:37.440Z,97.50
2022-08-28T03:20:06.822Z,97.60
2022-08-28T03:22:53.079Z,97.80
2022-08-28T03:25:22.515Z,97.60
2022-08-28T03:27:50.565Z,97.60
2022-08-28T03:30:19.398Z,97.60
2022-08-28T03:32:46.801Z,97.50
2022-08-28T03:35:14.461Z,97.60
2022-08-28T03:37:41.839Z,97.60
2022-08-28T03:40:10.579Z,97.70
2022-08-28T03:42:37.983Z,97.70
2022-08-28T03:45:08.878Z,97.60
2022-08-28T03:47:38.083Z,97.50
2022-08-28T03:50:07.958Z,97.50
2022-08-28T03:52:39.083Z,97.40
2022-08-28T03:55:09.050Z,97.40
2022-08-28T03:57:37.015Z,97.30
2022-08-28T04:00:10.359Z,97.20
2022-08-28T04:02:37.797Z,97.00
2022-08-28T04:05:05.941Z,96.80
2022-08-28T04:07:33.473Z,96.80
2022-08-28T04:10:00.981Z,96.60
2022-08-28T04:12:28.480Z,96.50
2022-08-28T04:15:00.281Z,96.60
2022-08-28T04:17:27.653Z,96.40
2022-08-28T04:19:55.426Z,96.20
2022-08-28T04:22:23.630Z,96.30
2022-08-28T04:24:51.356Z,96.20
2022-08-28T04:27:18.879Z,96.10
2022-08-28T04:29:46.561Z,96.00
2022-08-28T04:32:14.486Z,96.20
2022-08-28T04:34:41.868Z,95.80
2022-08-28T04:37:09.292Z,95.80
2022-08-28T04:39:36.839Z,95.50
2022-08-28T04:42:04.429Z,95.60
2022-08-28T04:44:32.557Z,95.40
2022-08-28T04:46:59.963Z,95.40
2022-08-28T04:49:28.129Z,95.00
2022-08-28T04:51:55.936Z,95.00
2022-08-28T04:54:23.277Z,95.00
2022-08-28T04:56:52.238Z,94.70
2022-08-28T04:59:19.643Z,94.40
2022-08-28T05:01:47.022Z,94.50
2022-08-28T05:04:14.602Z,94.30
2022-08-28T05:06:46.498Z,94.30
2022-08-28T05:09:19.361Z,94.10
2022-08-28T05:11:48.436Z,94.20
2022-08-28T05:14:16.614Z,94.10
2022-08-28T05:16:53.008Z,94.00
2022-08-28T05:19:21.840Z,94.20
2022-08-28T05:21:50.793Z,94.00
2022-08-28T05:24:18.854Z,93.90
2022-08-28T05:26:48.197Z,93.50
2022-08-28T05:29:17.066Z,93.50
2022-08-28T05:31:46.286Z,93.70
2022-08-28T05:34:14.154Z,93.50
2022-08-28T05:36:42.230Z,93.80
2022-08-28T05:39:11.747Z,93.40
2022-08-28T05:41:42.198Z,93.10
2022-08-28T05:44:13.079Z,93.00
2022-08-28T05:46:42.955Z,93.30
2022-08-28T05:49:10.920Z,92.70
2022-08-28T05:51:41.075Z,92.40
2022-08-28T05:54:09.228Z,92.60
2022-08-28T05:56:38.874Z,92.30
2022-08-28T05:59:07.710Z,92.20
2022-08-28T06:01:39.214Z,92.40
2022-08-28T06:04:19.650Z,91.90
2022-08-28T06:06:47.198Z,91.50
2022-08-28T06:09:18.178Z,91.90
2022-08-28T06:11:46.203Z,92.00
2022-08-28T06:14:17.897Z,91.50
2022-08-28T06:16:49.036Z,91.80
2022-08-28T06:19:17.678Z,91.20
2022-08-28T06:21:47.115Z,91.70
2022-08-28T06:24:14.519Z,91.60
2022-08-28T06:26:42.027Z,91.30
2022-08-28T06:29:13.536Z,91.30
2022-08-28T06:31:40.915Z,90.70
2022-08-28T06:34:09.610Z,90.90
2022-08-28T06:36:41.273Z,91.10
2022-08-28T06:39:10.464Z,90.50
2022-08-28T06:41:43.269Z,90.60
2022-08-28T06:44:13.774Z,90.30
2022-08-28T06:46:42.263Z,90.70
2022-08-28T06:49:09.860Z,89.70
2022-08-28T06:51:37.558Z,90.40
2022-08-28T06:54:05.471Z,88.80
2022-08-28T06:56:33.322Z,88.00
2022-08-28T06:59:00.829Z,88.80
2022-08-28T07:01:35.106Z,90.10
2022-08-28T07:04:14.868Z,87.80
2022-08-28T07:06:53.665Z,89.80
2022-08-28T07:09:21.487Z,87.80
2022-08-28T07:11:48.881Z,87.30
2022-08-28T07:14:16.192Z,88.50
2022-08-28T07:16:44.785Z,87.40
2022-08-28T07:19:13.795Z,87.00
2022-08-28T07:21:43.974Z,87.00
2022-08-28T07:24:14.863Z,86.70
2022-08-28T07:26:43.924Z,85.80
2022-08-28T07:29:12.011Z,86.10
2022-08-28T07:31:49.446Z,86.10
2022-08-28T07:34:19.120Z,86.40
2022-08-28T07:36:47.124Z,86.20
2022-08-28T07:39:16.168Z,86.20
2022-08-28T07:41:43.545Z,85.50
2022-08-28T07:44:31.775Z,84.80
2022-08-28T07:47:04.386Z,84.40
2022-08-28T07:49:34.003Z,83.70
2022-08-28T07:52:02.375Z,84.90
2022-08-28T07:54:29.752Z,85.30
2022-08-28T07:56:57.092Z,84.70
2022-08-28T07:59:24.681Z,84.90
2022-08-28T08:01:52.727Z,80.40
2022-08-28T08:04:21.386Z,80.60
2022-08-28T08:06:51.382Z,80.80
2022-08-28T08:09:22.251Z,79.60
2022-08-28T08:11:50.016Z,79.30
2022-08-28T08:14:18.596Z,79.20
2022-08-28T08:16:47.150Z,76.50
2022-08-28T08:19:15.533Z,76.80
2022-08-28T08:21:45.575Z,76.40
2022-08-28T08:24:19.628Z,76.40
2022-08-28T08:26:56.526Z,76.90
2022-08-28T08:29:31.583Z,80.40
2022-08-28T08:32:05.747Z,75.50
2022-08-28T08:34:40.001Z,75.10
2022-08-28T08:37:07.802Z,76.60
2022-08-28T08:39:36.795Z,75.10
2022-08-28T08:42:08.650Z,75.40
2022-08-28T08:44:44.711Z,73.60
2022-08-28T08:47:29.435Z,72.90
2022-08-28T08:50:07.486Z,71.50
2022-08-28T08:53:20.959Z,71.80
2022-08-28T08:55:53.348Z,71.00
2022-08-28T08:58:33.241Z,71.50
2022-08-28T09:01:22.495Z,71.90
2022-08-28T09:04:22.960Z,68.20
2022-08-28T09:06:52.295Z,68.70
2022-08-28T09:09:29.842Z,69.30
2022-08-28T09:12:02.012Z,65.60
2022-08-28T09:15:14.585Z,67.30
2022-08-28T09:17:55.278Z,66.40
2022-08-28T09:20:33.264Z,64.70
2022-08-28T09:23:02.082Z,65.30
2022-08-28T09:25:56.851Z,65.50
2022-08-28T09:28:38.653Z,65.50
2022-08-28T09:31:14.361Z,64.10
2022-08-28T09:33:52.810Z,65.00
2022-08-28T09:36:31.810Z,64.40
2022-08-28T09:39:29.913Z,62.10
2022-08-28T09:42:34.693Z,62.30
2022-08-28T09:45:16.479Z,63.20
2022-08-28T09:47:51.916Z,63.00
2022-08-28T09:50:35.762Z,65.20
2022-08-28T09:53:12.300Z,65.70
2022-08-28T09:55:58.050Z,60.90
2022-08-28T09:58:34.109Z,60.40
2022-08-28T10:01:39.915Z,60.80
2022-08-28T10:04:32.285Z,60.10
2022-08-28T10:07:26.635Z,58.20
2022-08-28T10:10:17.229Z,58.10
2022-08-28T10:13:03.877Z,55.40
2022-08-28T10:15:43.639Z,54.90
2022-08-28T10:18:37.970Z,55.60
2022-08-28T10:21:23.885Z,54.60
2022-08-28T10:24:09.828Z,54.50
2022-08-28T10:26:37.254Z,54.10
2022-08-28T10:29:33.592Z,54.60
2022-08-28T10:32:19.675Z,54.90
2022-08-28T10:35:03.759Z,54.10
2022-08-28T10:37:37.207Z,54.40
2022-08-28T10:40:14.116Z,53.00
2022-08-28T10:42:51.285Z,53.50
2022-08-28T10:45:25.961Z,53.60
2022-08-28T10:48:01.206Z,53.20
2022-08-28T10:50:29.807Z,52.60
2022-08-28T10:53:18.461Z,51.60
2022-08-28T10:56:00.300Z,53.00
2022-08-28T10:58:28.482Z,52.70
2022-08-28T11:01:02.020Z,51.00
2022-08-28T11:03:34.904Z,51.50
2022-08-28T11:06:43.417Z,50.00
2022-08-28T11:09:29.610Z,50.60
2022-08-28T11:12:02.313Z,48.20
2022-08-28T11:14:47.979Z,50.80
2022-08-28T11:17:25.629Z,50.70
2022-08-28T11:20:14.934Z,47.60
2022-08-28T11:22:53.393Z,46.70
2022-08-28T11:25:32.388Z,46.50
2022-08-28T11:28:12.605Z,47.50
2022-08-28T11:30:41.028Z,46.90
2022-08-28T11:33:29.928Z,47.80
2022-08-28T11:35:57.592Z,47.60
2022-08-28T11:38:43.499Z,48.10
2022-08-28T11:41:21.240Z,47.10
2022-08-28T11:44:14.637Z,45.60
2022-08-28T11:46:44.784Z,46.00
2022-08-28T11:49:24.770Z,46.60
2022-08-28T11:52:05.344Z,46.10
2022-08-28T11:54:47.262Z,46.50
2022-08-28T11:57:27.031Z,47.10
2022-08-28T12:00:06.691Z,47.60
2022-08-28T12:02:40.180Z,48.40
2022-08-28T12:05:15.479Z,48.00
2022-08-28T12:07:52.496Z,48.00
2022-08-28T12:10:27.610Z,47.50
2022-08-28T12:12:57.109Z,46.90
2022-08-28T12:15:30.178Z,46.80
2022-08-28T12:18:02.779Z,46.40
2022-08-28T12:20:56.198Z,48.10
2022-08-28T12:23:59.064Z,46.00
2022-08-28T12:26:38.567Z,46.80
2022-08-28T12:29:29.896Z,45.10
2022-08-28T12:32:26.189Z,46.40
2022-08-28T12:34:59.285Z,44.70
2022-08-28T12:37:52.480Z,43.40
2022-08-28T12:40:38.050Z,44.30
2022-08-28T12:43:10.253Z,44.10
2022-08-28T12:45:45.338Z,45.30
2022-08-28T12:48:23.009Z,44.10
2022-08-28T12:51:03.376Z,44.30
2022-08-28T12:53:39.940Z,45.40
2022-08-28T12:56:11.175Z,45.90
2022-08-28T12:58:40.814Z,44.20
2022-08-28T13:01:32.762Z,45.80
2022-08-28T13:04:04.035Z,45.10
2022-08-28T13:06:36.138Z,43.00
2022-08-28T13:09:19.276Z,43.90
2022-08-28T13:11:50.689Z,44.20
2022-08-28T13:14:42.338Z,43.80
2022-08-28T13:17:11.336Z,45.40
2022-08-28T13:19:39.327Z,43.90
2022-08-28T13:22:34.343Z,43.30
2022-08-28T13:25:05.568Z,43.10
2022-08-28T13:27:33.303Z,43.70
2022-08-28T13:30:21.065Z,43.50
2022-08-28T13:33:19.541Z,43.90
2022-08-28T13:35:47.135Z,45.90
2022-08-28T13:38:17.055Z,44.20
2022-08-28T13:40:57.869Z,46.20
2022-08-28T13:43:29.987Z,48.30
2022-08-28T13:45:58.207Z,43.70
2022-08-28T13:48:27.737Z,44.20
2022-08-28T13:51:09.108Z,43.60
2022-08-28T13:53:38.780Z,43.20
2022-08-28T13:56:06.884Z,44.00
2022-08-28T13:58:34.218Z,43.20
2022-08-28T14:01:02.557Z,43.00
2022-08-28T14:03:39.456Z,42.70
2022-08-28T14:06:17.130Z,42.50
2022-08-28T14:08:45.951Z,42.90
2022-08-28T14:11:15.531Z,44.00
2022-08-28T14:13:47.217Z,42.40
2022-08-28T14:16:25.069Z,41.40
2022-08-28T14:18:53.153Z,42.10
2022-08-28T14:21:21.865Z,42.40
2022-08-28T14:23:49.262Z,43.40
2022-08-28T14:26:16.593Z,41.80
2022-08-28T14:28:45.267Z,42.00
2022-08-28T14:31:14.807Z,43.10
2022-08-28T14:33:45.460Z,42.60
2022-08-28T14:36:18.129Z,42.30
2022-08-28T14:38:45.677Z,41.80
2022-08-28T14:41:14.988Z,42.20
2022-08-28T14:43:43.404Z,41.90
2022-08-28T14:46:28.355Z,42.90
2022-08-28T14:48:57.944Z,40.90
2022-08-28T14:51:25.645Z,41.10
2022-08-28T14:53:54.109Z,41.50
2022-08-28T14:56:22.744Z,41.90
2022-08-28T14:58:50.285Z,42.20
2022-08-28T15:01:44.179Z,42.50
2022-08-28T15:04:14.362Z,42.10
2022-08-28T15:06:43.099Z,42.90
2022-08-28T15:09:12.725Z,43.00
2022-08-28T15:11:42.628Z,41.70
2022-08-28T15:14:11.189Z,42.50
2022-08-28T15:16:43.081Z,41.90
2022-08-28T15:19:12.606Z,42.80
2022-08-28T15:21:45.749Z,42.30
2022-08-28T15:24:16.027Z,41.40
2022-08-28T15:26:44.124Z,42.00
2022-08-28T15:29:12.359Z,42.60
2022-08-28T15:31:43.011Z,43.20
2022-08-28T15:34:15.355Z,44.00
2022-08-28T15:36:44.439Z,44.10
2022-08-28T15:39:31.339Z,43.90
2022-08-28T15:41:59.910Z,43.70
2022-08-28T15:44:28.393Z,42.80
2022-08-28T15:47:01.702Z,43.50
2022-08-28T15:49:32.214Z,43.90
2022-08-28T15:52:04.033Z,44.30
2022-08-28T15:54:33.142Z,44.50
2022-08-28T15:57:00.660Z,44.50
2022-08-28T15:59:40.050Z,44.90
2022-08-28T16:02:16.201Z,45.30
2022-08-28T16:04:44.040Z,44.90
2022-08-28T16:07:11.361Z,46.30
2022-08-28T16:09:38.713Z,45.00
2022-08-28T16:12:06.394Z,45.60
2022-08-28T16:14:34.380Z,45.90
2022-08-28T16:17:06.025Z,45.90
2022-08-28T16:19:40.227Z,46.30
2022-08-28T16:22:08.976Z,47.80
2022-08-28T16:24:37.138Z,48.00
2022-08-28T16:27:06.451Z,50.80
2022-08-28T16:29:37.518Z,49.50
2022-08-28T16:32:05.678Z,50.80
2022-08-28T16:34:34.220Z,50.70
2022-08-28T16:37:01.714Z,52.70
2022-08-28T16:39:29.555Z,53.70
2022-08-28T16:41:57.047Z,55.00
2022-08-28T16:44:26.635Z,56.30
2022-08-28T16:46:55.649Z,56.00
2022-08-28T16:49:24.134Z,56.30
2022-08-28T16:51:51.873Z,57.40
2022-08-28T16:54:21.743Z,58.10
2022-08-28T16:56:49.245Z,59.80
2022-08-28T16:59:18.917Z,61.30
2022-08-28T17:01:47.613Z,61.00
2022-08-28T17:04:21.717Z,61.60
2022-08-28T17:06:49.557Z,62.90
2022-08-28T17:09:16.978Z,64.00
2022-08-28T17:11:51.518Z,65.30
2022-08-28T17:14:20.141Z,65.00
2022-08-28T17:16:47.725Z,65.00
2022-08-28T17:19:16.060Z,65.30
2022-08-28T17:22:02.261Z,65.70
2022-08-28T17:24:31.341Z,66.40
2022-08-28T17:27:03.251Z,67.80
2022-08-28T17:29:33.418Z,68.60
2022-08-28T17:32:00.857Z,68.80
2022-08-28T17:34:30.406Z,69.30
2022-08-28T17:36:58.140Z,69.50
2022-08-28T17:39:25.919Z,69.40
2022-08-28T17:41:53.340Z,69.60
2022-08-28T17:44:20.968Z,70.80
2022-08-28T17:46:48.411Z,70.50
2022-08-28T17:49:15.959Z,71.00
2022-08-28T17:51:44.533Z,71.30
2022-08-28T17:54:21.703Z,72.60
2022-08-28T17:56:50.411Z,72.50
2022-08-28T17:59:18.529Z,73.20
2022-08-28T18:01:47.060Z,73.30
2022-08-28T18:04:19.034Z,74.50
2022-08-28T18:06:49.388Z,74.80
2022-08-28T18:09:17.007Z,75.00
2022-08-28T18:11:44.609Z,74.70
2022-08-28T18:14:12.140Z,75.20
2022-08-28T18:16:39.967Z,75.20
2022-08-28T18:19:10.976Z,75.30
2022-08-28T18:21:39.540Z,75.60
2022-08-28T18:24:09.056Z,75.60
2022-08-28T18:26:37.258Z,75.90
2022-08-28T18:29:04.884Z,76.20
2022-08-28T18:31:32.722Z,76.60
2022-08-28T18:34:00.440Z,76.90
2022-08-28T18:36:27.869Z,77.10
2022-08-28T18:38:55.256Z,77.20
2022-08-28T18:41:28.662Z,77.70
2022-08-28T18:44:10.600Z,78.10
2022-08-28T18:46:38.104Z,78.00
2022-08-28T18:49:05.603Z,79.00
2022-08-28T18:51:33.254Z,79.20
2022-08-28T18:54:02.032Z,79.20
2022-08-28T18:56:31.350Z,79.70
2022-08-28T18:58:59.882Z,80.60
2022-08-28T19:01:27.441Z,80.50
2022-08-28T19:03:55.954Z,80.80
2022-08-28T19:06:24.116Z,81.00
2022-08-28T19:08:51.515Z,81.30
2022-08-28T19:11:19.794Z,81.60
2022-08-28T19:13:47.682Z,81.60
2022-08-28T19:16:19.844Z,81.50
2022-08-28T19:18:48.080Z,81.90
2022-08-28T19:21:20.459Z,82.50
2022-08-28T19:23:55.885Z,82.80
2022-08-28T19:26:27.813Z,83.10
2022-08-28T19:28:56.036Z,83.40
2022-08-28T19:31:25.227Z,83.80
2022-08-28T19:33:52.776Z,84.00
2022-08-28T19:36:21.624Z,84.10
2022-08-28T19:38:49.062Z,84.40
2022-08-28T19:41:16.780Z,84.70
2022-08-28T19:43:44.636Z,85.00
2022-08-28T19:46:19.245Z,85.60
2022-08-28T19:48:49.068Z,86.10
2022-08-28T19:51:23.226Z,86.60
2022-08-28T19:53:58.362Z,87.10
2022-08-28T19:56:28.244Z,87.80
2022-08-28T19:58:58.799Z,88.10
2022-08-28T20:01:30.632Z,88.40
2022-08-28T20:03:59.282Z,88.60
2022-08-28T20:06:27.958Z,89.10
2022-08-28T20:08:55.467Z,89.50
2022-08-28T20:11:25.430Z,90.00
2022-08-28T20:14:04.561Z,90.40
2022-08-28T20:16:35.389Z,90.40
2022-08-28T20:19:04.152Z,90.50
2022-08-28T20:21:37.135Z,90.50
2022-08-28T20:24:11.699Z,90.60
2022-08-28T20:26:39.198Z,90.60
2022-08-28T20:29:08.972Z,90.70
2022-08-28T20:31:40.648Z,90.90
2022-08-28T20:34:10.349Z,91.00
2022-08-28T20:36:38.022Z,91.00
2022-08-28T20:39:07.514Z,91.20
2022-08-28T20:41:35.579Z,91.30
2022-08-28T20:44:08.097Z,91.30
2022-08-28T20:46:40.849Z,91.70
2022-08-28T20:49:11.409Z,92.00
2022-08-28T20:52:01.262Z,92.20
2022-08-28T20:54:38.043Z,92.20
2022-08-28T20:57:12.278Z,92.30
2022-08-28T20:59:40.979Z,92.50
2022-08-28T21:02:13.987Z,92.70
2022-08-28T21:04:43.370Z,92.80
2022-08-28T21:07:11.729Z,92.90
2022-08-28T21:10:04.560Z,93.00
2022-08-28T21:12:27.709Z,93.30
2022-08-28T21:14:55.184Z,93.50
2022-08-28T21:17:29.412Z,93.80
2022-08-28T21:20:03.062Z,93.80
2022-08-28T21:22:32.922Z,93.80
2022-08-28T21:25:00.894Z,94.00
2022-08-28T21:27:28.860Z,94.20
2022-08-28T21:29:58.565Z,94.20
2022-08-28T21:32:27.419Z,94.20
2022-08-28T21:34:55.415Z,94.30
2022-08-28T21:37:23.545Z,94.40
2022-08-28T21:39:51.101Z,94.60
2022-08-28T21:42:18.876Z,94.80
2022-08-28T21:44:51.563Z,94.70
2022-08-28T21:47:21.640Z,94.80
2022-08-28T21:49:50.423Z,94.90
2022-08-28T21:52:19.120Z,95.20
2022-08-28T21:54:46.756Z,95.20
2022-08-28T21:57:14.720Z,95.20
2022-08-28T21:59:43.616Z,95.20
2022-08-28T22:02:11.102Z,95.40
2022-08-28T22:04:38.560Z,95.50
2022-08-28T22:07:06.775Z,95.70
2022-08-28T22:09:34.095Z,96.10
2022-08-28T22:12:01.699Z,96.40
2022-08-28T22:14:29.119Z,96.40
2022-08-28T22:16:57.068Z,96.40
2022-08-28T22:19:24.476Z,96.40
2022-08-28T22:22:10.375Z,96.30
2022-08-28T22:24:38.275Z,96.50
2022-08-28T22:27:06.077Z,96.60
2022-08-28T22:29:36.756Z,96.80
2022-08-28T22:32:08.510Z,96.90
2022-08-28T22:34:40.335Z,97.00
2022-08-28T22:37:09.894Z,97.10
2022-08-28T22:39:41.222Z,97.20
2022-08-28T22:42:09.556Z,97.30
2022-08-28T22:44:37.901Z,97.50
2022-08-28T22:47:05.477Z,97.50
2022-08-28T22:49:32.900Z,97.70
2022-08-28T22:52:00.215Z,97.80
2022-08-28T22:54:27.695Z,97.80
2022-08-28T22:56:55.200Z,97.60
2022-08-28T22:59:22.575Z,97.60
2022-08-28T23:01:50.060Z,98.00
2022-08-28T23:04:17.505Z,98.20
2022-08-28T23:06:45.555Z,98.30
2022-08-28T23:09:13.114Z,98.70
2022-08-28T23:11:40.485Z,98.70
2022-08-28T23:14:07.992Z,98.90
2022-08-28T23:16:35.582Z,99.10
2022-08-28T23:19:13.489Z,99.40
2022-08-28T23:21:44.120Z,99.50
2022-08-28T23:24:13.969Z,99.50
2022-08-28T23:26:42.634Z,99.60
2022-08-28T23:29:10.777Z,99.60
2022-08-28T23:31:39.235Z,99.60
2022-08-28T23:34:07.471Z,99.80
2022-08-28T23:36:36.619Z,99.80
2022-08-28T23:39:05.596Z,99.90
2022-08-28T23:41:33.917Z,99.90
2022-08-28T23:44:05.291Z,99.90
2022-08-28T23:46:36.074Z,99.90
2022-08-28T23:49:03.512Z,99.90
2022-08-28T23:51:31.412Z,99.90
2022-08-28T23:53:58.956Z,99.90
2022-08-28T23:56:28.132Z,99.90
2022-08-28T23:58:56.016Z,99.90
